Main page
METAR-TAF:

METAR-TAF

Airports :

Blackpool Airport

Blackpool, England

latitude: 53-46N, longitude: 003-02W, elevation: 10 m

Current weather observation

The report was made 49 minutes ago, at 13:20 UTC
Wind 21 kt from the West/Southwest
Temperature 17°C
Humidity 72%
Pressure 1010 hPa
Visibility 10 km or more
Few clouds at a height of 2000 ft
Scattered clouds at a height of 3800 ft

METAR: EGNH 161320Z 25021KT 9999 FEW020 SCT038 17/12 Q1010

Time: 15:09 (14:09 UTC)

Forecast

The report was made 3 hours and 9 minutes ago, at 11:00 UTC
Forecast valid from 16 at 12 UTC to 16 at 21 UTC
Wind 12 kt from the West/Southwest
Visibility 10 km or more
Few clouds at a height of 2000 ft
Temporary
from 16 at 12 UTC to 16 at 21 UTC
Wind 16 kt from the West/Southwest with gusts up to 26 kt
Probability 30% :
Temporary
from 16 at 12 UTC to 16 at 17 UTC
Visibility: 7000 m
rain showers

TAF: EGNH 161100Z 1612/1621 25012KT 9999 FEW020 TEMPO 1612/1621 25016G26KT PROB30 TEMPO 1612/1617 7000 SHRA

Weather observations and forecasts of more than 4000 airports (METAR and TAF reports).

The available stations are represented by yellow and red dots on the map.

Hover mouse over dot to see the name of the station.

Then click to see weather observations and forecasts.

To change the map : click on the green buttons with a black cross to zoom in, on the green button with a dash to zoom out, or on the green arrows for adjacent maps.


METAR-TAF: